createdAt,value
2022-11-28T00:01:59.928Z,84.76
2022-11-28T00:04:31.594Z,84.43
2022-11-28T00:07:03.318Z,84.57
2022-11-28T00:09:35.128Z,84.27
2022-11-28T00:12:06.929Z,84.68
2022-11-28T00:14:38.541Z,84.50
2022-11-28T00:17:10.174Z,84.10
2022-11-28T00:19:41.849Z,84.36
2022-11-28T00:22:13.555Z,84.13
2022-11-28T00:24:45.311Z,83.76
2022-11-28T00:27:16.959Z,84.10
2022-11-28T00:29:48.581Z,84.14
2022-11-28T00:32:20.262Z,83.85
2022-11-28T00:34:52.099Z,84.22
2022-11-28T00:37:23.754Z,83.78
2022-11-28T00:39:55.363Z,83.68
2022-11-28T00:42:29.431Z,83.49
2022-11-28T00:45:01.084Z,83.30
2022-11-28T00:47:35.553Z,83.28
2022-11-28T00:50:07.748Z,83.74
2022-11-28T00:52:39.759Z,83.98
2022-11-28T00:55:11.373Z,83.42
2022-11-28T00:57:43.011Z,83.22
2022-11-28T01:00:15.251Z,83.65
2022-11-28T01:02:47.046Z,83.12
2022-11-28T01:05:18.701Z,83.06
2022-11-28T01:07:53.565Z,83.16
2022-11-28T01:10:25.582Z,82.93
2022-11-28T01:13:00.546Z,82.88
2022-11-28T01:15:32.207Z,82.68
2022-11-28T01:18:03.954Z,82.62
2022-11-28T01:20:37.046Z,82.61
2022-11-28T01:23:08.785Z,82.71
2022-11-28T01:25:40.392Z,82.62
2022-11-28T01:28:12.019Z,82.63
2022-11-28T01:30:43.606Z,82.97
2022-11-28T01:33:15.330Z,82.53
2022-11-28T01:35:57.628Z,82.64
2022-11-28T01:38:29.446Z,82.49
2022-11-28T01:41:01.757Z,82.43
2022-11-28T01:43:34.416Z,82.42
2022-11-28T01:46:06.721Z,82.37
2022-11-28T01:48:41.926Z,82.29
2022-11-28T01:51:13.916Z,81.89
2022-11-28T01:53:49.543Z,81.82
2022-11-28T01:56:25.831Z,81.85
2022-11-28T01:59:02.545Z,81.77
2022-11-28T02:01:34.459Z,81.55
2022-11-28T02:04:06.553Z,81.49
2022-11-28T02:06:38.116Z,81.31
2022-11-28T02:09:12.926Z,81.24
2022-11-28T02:11:57.066Z,81.44
2022-11-28T02:14:45.595Z,81.19
2022-11-28T02:17:38.877Z,81.27
2022-11-28T02:20:29.348Z,81.45
2022-11-28T02:23:38.640Z,81.49
2022-11-28T02:26:45.547Z,81.63
2022-11-28T02:29:35.840Z,81.56
2022-11-28T02:32:07.436Z,81.61
2022-11-28T02:34:56.670Z,81.38
2022-11-28T02:38:03.003Z,81.58
2022-11-28T02:40:53.223Z,81.33
2022-11-28T02:43:51.169Z,81.17
2022-11-28T02:46:32.359Z,80.68
2022-11-28T02:49:06.772Z,80.82
2022-11-28T02:51:46.959Z,81.14
2022-11-28T02:54:20.891Z,80.84
2022-11-28T02:56:54.662Z,80.72
2022-11-28T02:59:46.767Z,81.05
2022-11-28T03:02:25.440Z,81.10
2022-11-28T03:05:20.960Z,81.47
2022-11-28T03:08:00.934Z,81.02
2022-11-28T03:10:51.967Z,81.33
2022-11-28T03:13:38.560Z,81.29
2022-11-28T03:16:34.916Z,81.08
2022-11-28T03:19:24.650Z,80.89
2022-11-28T03:22:41.061Z,81.38
2022-11-28T03:25:25.740Z,81.15
2022-11-28T03:28:12.411Z,81.54
2022-11-28T03:30:53.969Z,81.79
2022-11-28T03:33:31.236Z,81.82
2022-11-28T03:36:14.640Z,82.04
2022-11-28T03:38:51.115Z,81.71
2022-11-28T03:41:39.658Z,81.95
2022-11-28T03:44:21.004Z,82.13
2022-11-28T03:46:56.541Z,82.08
2022-11-28T03:49:35.001Z,81.96
2022-11-28T03:52:23.666Z,82.16
2022-11-28T03:55:06.848Z,81.82
2022-11-28T03:58:03.211Z,81.90
2022-11-28T04:00:42.134Z,82.37
2022-11-28T04:03:31.860Z,82.09
2022-11-28T04:06:26.088Z,82.18
2022-11-28T04:09:02.503Z,82.03
2022-11-28T04:11:49.776Z,81.93
2022-11-28T04:14:37.375Z,82.23
2022-11-28T04:17:34.077Z,81.70
2022-11-28T04:20:24.647Z,81.63
2022-11-28T04:23:02.543Z,81.43
2022-11-28T04:25:37.532Z,81.41
2022-11-28T04:28:16.533Z,81.74
2022-11-28T04:30:50.173Z,81.66
2022-11-28T04:33:24.047Z,81.47
2022-11-28T04:35:56.937Z,81.37
2022-11-28T04:38:30.007Z,81.33
2022-11-28T04:41:10.849Z,81.40
2022-11-28T04:43:48.718Z,81.20
2022-11-28T04:46:36.256Z,80.90
2022-11-28T04:49:07.899Z,80.75
2022-11-28T04:52:14.971Z,80.90
2022-11-28T04:55:01.325Z,80.09
2022-11-28T04:57:38.207Z,80.24
2022-11-28T05:00:13.416Z,80.54
2022-11-28T05:02:47.867Z,80.07
2022-11-28T05:05:23.598Z,79.97
2022-11-28T05:07:55.338Z,79.77
2022-11-28T05:10:27.086Z,80.13
2022-11-28T05:12:58.662Z,79.90
2022-11-28T05:15:30.415Z,80.12
2022-11-28T05:18:02.308Z,79.88
2022-11-28T05:20:35.009Z,80.24
2022-11-28T05:23:06.801Z,80.07
2022-11-28T05:25:40.037Z,80.04
2022-11-28T05:28:11.704Z,79.34
2022-11-28T05:30:43.335Z,79.55
2022-11-28T05:33:15.004Z,79.33
2022-11-28T05:35:46.626Z,79.22
2022-11-28T05:38:18.306Z,79.79
2022-11-28T05:40:50.906Z,79.19
2022-11-28T05:43:22.466Z,79.56
2022-11-28T05:45:55.001Z,79.92
2022-11-28T05:48:26.652Z,79.32
2022-11-28T05:50:58.368Z,79.31
2022-11-28T05:53:29.988Z,79.80
2022-11-28T05:56:13.666Z,80.20
2022-11-28T05:58:46.011Z,80.02
2022-11-28T06:01:20.820Z,79.89
2022-11-28T06:03:58.204Z,80.05
2022-11-28T06:06:33.074Z,79.95
2022-11-28T06:09:06.083Z,80.49
2022-11-28T06:11:37.734Z,79.83
2022-11-28T06:14:10.742Z,80.30
2022-11-28T06:16:43.653Z,80.32
2022-11-28T06:19:15.440Z,80.05
2022-11-28T06:21:50.272Z,79.67
2022-11-28T06:24:21.936Z,80.21
2022-11-28T06:26:53.707Z,79.91
2022-11-28T06:29:25.389Z,79.88
2022-11-28T06:31:57.282Z,80.13
2022-11-28T06:34:29.030Z,80.20
2022-11-28T06:37:00.768Z,79.98
2022-11-28T06:39:32.610Z,79.52
2022-11-28T06:42:04.482Z,79.45
2022-11-28T06:44:36.085Z,79.93
2022-11-28T06:47:08.779Z,79.78
2022-11-28T06:49:40.736Z,79.73
2022-11-28T06:52:12.706Z,80.13
2022-11-28T06:54:44.726Z,79.83
2022-11-28T06:57:22.371Z,79.99
2022-11-28T06:59:54.097Z,80.29
2022-11-28T07:02:28.706Z,80.81
2022-11-28T07:05:00.401Z,81.06
2022-11-28T07:07:45.653Z,81.04
2022-11-28T07:10:28.044Z,81.28
2022-11-28T07:13:05.093Z,80.97
2022-11-28T07:15:37.079Z,80.52
2022-11-28T07:18:08.821Z,80.73
2022-11-28T07:20:40.505Z,80.50
2022-11-28T07:23:12.095Z,81.20
2022-11-28T07:25:43.719Z,81.11
2022-11-28T07:28:18.436Z,80.66
2022-11-28T07:31:02.693Z,81.26
2022-11-28T07:33:37.848Z,80.55
2022-11-28T07:36:15.528Z,80.64
2022-11-28T07:38:52.854Z,80.96
2022-11-28T07:41:26.902Z,80.71
2022-11-28T07:44:04.347Z,80.63
2022-11-28T07:46:39.016Z,80.41
2022-11-28T07:49:11.757Z,80.48
2022-11-28T07:51:43.549Z,80.88
2022-11-28T07:54:18.648Z,80.99
2022-11-28T07:57:12.432Z,81.00
2022-11-28T07:59:45.244Z,80.56
2022-11-28T08:02:20.058Z,80.96
2022-11-28T08:04:55.267Z,81.05
2022-11-28T08:07:27.135Z,80.60
2022-11-28T08:09:58.946Z,80.27
2022-11-28T08:12:30.670Z,80.59
2022-11-28T08:15:05.056Z,80.90
2022-11-28T08:17:38.294Z,80.42
2022-11-28T08:20:10.413Z,80.58
2022-11-28T08:22:44.904Z,80.90
2022-11-28T08:25:16.525Z,80.97
2022-11-28T08:27:51.024Z,81.26
2022-11-28T08:30:22.940Z,80.84
2022-11-28T08:32:54.617Z,80.61
2022-11-28T08:35:26.268Z,80.36
2022-11-28T08:38:01.761Z,80.37
2022-11-28T08:40:36.884Z,81.05
2022-11-28T08:43:09.797Z,80.44
2022-11-28T08:45:41.559Z,80.04
2022-11-28T08:48:15.419Z,80.61
2022-11-28T08:50:52.892Z,80.44
2022-11-28T08:53:24.578Z,80.07
2022-11-28T08:55:59.012Z,79.97
2022-11-28T08:58:33.790Z,80.07
2022-11-28T09:01:14.879Z,80.43
2022-11-28T09:03:50.914Z,80.10
2022-11-28T09:09:15.945Z,80.16
2022-11-28T09:11:54.577Z,79.92
2022-11-28T09:14:27.662Z,79.67
2022-11-28T09:17:05.776Z,79.60
2022-11-28T09:19:37.480Z,79.24
2022-11-28T09:22:09.133Z,79.64
2022-11-28T09:24:40.756Z,78.70
2022-11-28T09:27:13.505Z,78.87
2022-11-28T09:29:47.559Z,78.58
2022-11-28T09:32:19.363Z,78.56
2022-11-28T09:34:52.410Z,78.88
2022-11-28T09:37:24.208Z,79.04
2022-11-28T09:40:12.805Z,77.95
2022-11-28T09:42:47.091Z,78.53
2022-11-28T09:45:25.154Z,78.68
2022-11-28T09:48:34.252Z,78.40
2022-11-28T09:51:58.567Z,77.49
2022-11-28T09:54:47.190Z,77.22
2022-11-28T09:57:40.289Z,77.43
2022-11-28T10:00:22.866Z,77.18
2022-11-28T10:03:44.875Z,77.30
2022-11-28T10:06:41.903Z,77.27
2022-11-28T10:09:32.572Z,76.67
2022-11-28T10:12:43.922Z,76.16
2022-11-28T10:15:54.970Z,76.34
2022-11-28T10:18:45.151Z,75.98
2022-11-28T10:21:33.253Z,76.58
2022-11-28T10:24:16.390Z,76.40
2022-11-28T10:26:51.968Z,76.12
2022-11-28T10:29:44.723Z,75.52
2022-11-28T10:32:33.576Z,76.05
2022-11-28T10:35:31.832Z,75.24
2022-11-28T10:38:10.373Z,75.19
2022-11-28T10:40:55.994Z,75.39
2022-11-28T10:43:39.512Z,74.95
2022-11-28T10:46:48.751Z,75.07
2022-11-28T10:49:26.547Z,74.92
2022-11-28T10:52:04.278Z,74.78
2022-11-28T10:54:59.975Z,74.38
2022-11-28T10:58:21.194Z,73.92
2022-11-28T11:00:57.866Z,74.38
2022-11-28T11:03:35.894Z,74.04
2022-11-28T11:06:08.272Z,73.79
2022-11-28T11:08:41.668Z,73.56
2022-11-28T11:11:30.541Z,73.15
2022-11-28T11:14:05.469Z,73.53
2022-11-28T11:16:55.494Z,72.91
2022-11-28T11:19:41.967Z,73.16
2022-11-28T11:22:24.705Z,73.16
2022-11-28T11:25:12.318Z,72.62
2022-11-28T11:27:53.193Z,72.64
2022-11-28T11:30:26.064Z,72.77
2022-11-28T11:33:12.419Z,72.74
2022-11-28T11:35:49.453Z,71.83
2022-11-28T11:38:21.001Z,72.00
2022-11-28T11:40:55.764Z,72.30
2022-11-28T11:43:43.293Z,72.06
2022-11-28T11:46:17.225Z,72.66
2022-11-28T11:49:01.431Z,72.58
2022-11-28T11:51:39.122Z,72.58
2022-11-28T11:54:19.186Z,72.56
2022-11-28T11:57:05.745Z,72.76
2022-11-28T11:59:49.916Z,73.11
2022-11-28T12:02:34.351Z,73.00
2022-11-28T12:05:19.031Z,73.69
2022-11-28T12:08:07.773Z,73.56
2022-11-28T12:10:53.539Z,73.69
2022-11-28T12:13:28.072Z,73.42
2022-11-28T12:16:14.770Z,73.45
2022-11-28T12:19:18.234Z,73.39
2022-11-28T12:22:24.968Z,73.35
2022-11-28T12:25:11.652Z,73.50
2022-11-28T12:28:17.542Z,72.88
2022-11-28T12:31:03.501Z,72.17
2022-11-28T12:33:54.972Z,72.27
2022-11-28T12:37:06.252Z,71.74
2022-11-28T12:39:51.287Z,71.91
2022-11-28T12:42:41.346Z,71.90
2022-11-28T12:45:41.901Z,72.32
2022-11-28T12:48:34.759Z,72.15
2022-11-28T12:51:15.138Z,72.13
2022-11-28T12:54:10.279Z,72.10
2022-11-28T12:56:50.223Z,72.29
2022-11-28T13:00:15.260Z,72.27
2022-11-28T13:03:10.776Z,71.94
2022-11-28T13:05:42.350Z,71.93
2022-11-28T13:08:51.577Z,72.04
2022-11-28T13:11:56.652Z,71.67
2022-11-28T13:14:37.231Z,71.37
2022-11-28T13:17:23.208Z,71.16
2022-11-28T13:20:08.432Z,71.21
2022-11-28T13:22:56.275Z,71.02
2022-11-28T13:26:02.654Z,70.96
2022-11-28T13:29:25.522Z,70.84
2022-11-28T13:32:19.430Z,70.99
2022-11-28T13:34:51.999Z,71.40
2022-11-28T13:41:22.819Z,71.15
2022-11-28T13:44:09.807Z,71.29
2022-11-28T13:46:46.165Z,70.87
2022-11-28T13:49:37.118Z,70.99
2022-11-28T13:52:19.019Z,71.05
2022-11-28T13:54:50.957Z,70.99
2022-11-28T13:57:39.898Z,71.08
2022-11-28T14:00:19.205Z,70.88
2022-11-28T14:02:59.093Z,70.87
2022-11-28T14:05:41.661Z,71.14
2022-11-28T14:08:35.170Z,71.01
2022-11-28T14:11:48.816Z,71.07
2022-11-28T14:14:36.100Z,71.11
2022-11-28T14:17:29.368Z,70.91
2022-11-28T14:20:30.716Z,70.86
2022-11-28T14:23:36.656Z,70.57
2022-11-28T14:26:31.104Z,70.71
2022-11-28T14:29:12.720Z,70.93
2022-11-28T14:32:06.520Z,70.95
2022-11-28T14:34:46.249Z,71.03
2022-11-28T14:37:59.775Z,71.10
2022-11-28T14:40:54.922Z,71.24
2022-11-28T14:43:37.368Z,71.15
2022-11-28T14:46:15.192Z,71.32
2022-11-28T14:48:59.391Z,71.32
2022-11-28T14:51:51.548Z,71.36
2022-11-28T14:54:43.872Z,71.60
2022-11-28T14:57:24.069Z,71.46
2022-11-28T15:00:04.208Z,71.27
2022-11-28T15:02:58.557Z,71.16
2022-11-28T15:05:43.632Z,70.93
2022-11-28T15:08:38.132Z,70.93
2022-11-28T15:11:35.345Z,70.79
2022-11-28T15:14:20.786Z,71.00
2022-11-28T15:17:06.963Z,71.25
2022-11-28T15:19:49.723Z,70.94
2022-11-28T15:22:29.740Z,70.65
2022-11-28T15:25:01.915Z,70.43
2022-11-28T15:27:35.693Z,70.78
2022-11-28T15:30:29.368Z,70.87
2022-11-28T15:33:03.792Z,70.92
2022-11-28T15:35:37.773Z,70.78
2022-11-28T15:38:14.979Z,70.69
2022-11-28T15:40:51.671Z,70.92
2022-11-28T15:43:24.833Z,71.04
2022-11-28T15:46:01.878Z,70.98
2022-11-28T15:51:53.372Z,71.12
2022-11-28T15:54:36.364Z,71.24
2022-11-28T15:57:23.801Z,71.28
2022-11-28T15:59:57.202Z,71.48
2022-11-28T16:02:35.557Z,71.35
2022-11-28T16:05:16.461Z,71.58
2022-11-28T16:07:54.391Z,71.37
2022-11-28T16:10:32.631Z,71.34
2022-11-28T16:13:20.918Z,71.23
2022-11-28T16:15:55.680Z,71.60
2022-11-28T16:18:31.200Z,71.26
2022-11-28T16:21:04.365Z,71.56
2022-11-28T16:23:38.216Z,71.28
2022-11-28T16:26:26.696Z,71.68
2022-11-28T16:29:10.030Z,71.92
2022-11-28T16:31:44.415Z,71.69
2022-11-28T16:34:16.840Z,71.84
2022-11-28T16:36:50.595Z,72.46
2022-11-28T16:39:26.781Z,72.50
2022-11-28T16:42:12.500Z,72.17
2022-11-28T16:44:46.341Z,72.22
2022-11-28T16:47:27.164Z,71.95
2022-11-28T16:50:19.522Z,71.84
2022-11-28T16:52:55.724Z,71.91
2022-11-28T16:55:27.298Z,71.87
2022-11-28T16:58:11.496Z,71.57
2022-11-28T17:00:47.803Z,71.78
2022-11-28T17:03:52.690Z,71.92
2022-11-28T17:06:33.986Z,71.71
2022-11-28T17:09:09.907Z,72.39
2022-11-28T17:11:45.309Z,71.97
2022-11-28T17:14:21.800Z,72.30
2022-11-28T17:16:56.202Z,72.05
2022-11-28T17:19:30.546Z,72.03
2022-11-28T17:22:06.361Z,71.86
2022-11-28T17:24:37.994Z,71.93
2022-11-28T17:27:12.466Z,71.79
2022-11-28T17:29:47.581Z,71.91
2022-11-28T17:32:19.202Z,71.95
2022-11-28T17:34:50.861Z,71.92
2022-11-28T17:37:22.457Z,71.88
2022-11-28T17:40:20.200Z,71.75
2022-11-28T17:42:51.799Z,72.27
2022-11-28T17:45:27.496Z,72.13
2022-11-28T17:48:02.160Z,72.13
2022-11-28T17:50:35.019Z,72.36
2022-11-28T17:53:07.315Z,72.31
2022-11-28T17:55:41.282Z,72.42
2022-11-28T17:58:21.839Z,72.46
2022-11-28T18:01:00.228Z,72.60
2022-11-28T18:03:32.834Z,72.36
2022-11-28T18:06:05.442Z,72.55
2022-11-28T18:08:44.679Z,72.05
2022-11-28T18:11:20.287Z,72.56
2022-11-28T18:13:53.462Z,72.85
2022-11-28T18:16:29.872Z,73.02
2022-11-28T18:19:03.787Z,73.03
2022-11-28T18:21:35.603Z,73.15
2022-11-28T18:24:13.038Z,73.21
2022-11-28T18:26:45.940Z,73.03
2022-11-28T18:29:17.554Z,73.35
2022-11-28T18:31:49.553Z,73.07
2022-11-28T18:34:21.244Z,73.00
2022-11-28T18:37:00.700Z,73.24
2022-11-28T18:39:37.835Z,73.33
2022-11-28T18:42:10.260Z,73.18
2022-11-28T18:44:43.908Z,73.41
2022-11-28T18:47:15.910Z,73.51
2022-11-28T18:49:47.691Z,73.72
2022-11-28T18:52:19.328Z,73.60
2022-11-28T18:54:53.029Z,73.49
2022-11-28T18:57:30.013Z,73.29
2022-11-28T19:00:08.094Z,73.61
2022-11-28T19:02:42.301Z,73.58
2022-11-28T19:05:17.049Z,73.48
2022-11-28T19:07:51.030Z,73.55
2022-11-28T19:10:23.235Z,73.33
2022-11-28T19:12:57.572Z,73.36
2022-11-28T19:15:29.580Z,73.32
2022-11-28T19:18:04.324Z,73.38
2022-11-28T19:20:41.241Z,73.29
2022-11-28T19:23:12.867Z,73.48
2022-11-28T19:25:47.373Z,73.31
2022-11-28T19:28:21.957Z,73.32
2022-11-28T19:30:54.270Z,73.05
2022-11-28T19:33:29.144Z,73.39
2022-11-28T19:36:09.188Z,73.28
2022-11-28T19:38:41.859Z,73.13
2022-11-28T19:41:22.119Z,73.34
2022-11-28T19:44:24.702Z,73.39
2022-11-28T19:47:04.272Z,73.44
2022-11-28T19:49:35.979Z,73.56
2022-11-28T19:52:09.983Z,73.77
2022-11-28T19:54:41.953Z,73.83
2022-11-28T19:57:16.552Z,73.85
2022-11-28T19:59:48.362Z,73.85
2022-11-28T20:02:30.226Z,73.77
2022-11-28T20:05:02.312Z,73.75
2022-11-28T20:07:34.006Z,73.53
2022-11-28T20:10:06.998Z,73.60
2022-11-28T20:12:40.223Z,73.41
2022-11-28T20:15:18.331Z,73.41
2022-11-28T20:17:50.700Z,73.89
2022-11-28T20:20:23.774Z,73.88
2022-11-28T20:22:57.536Z,73.46
2022-11-28T20:25:29.165Z,73.49
2022-11-28T20:28:03.401Z,73.42
2022-11-28T20:30:36.761Z,73.57
2022-11-28T20:33:08.416Z,73.42
2022-11-28T20:35:40.087Z,73.42
2022-11-28T20:38:15.060Z,73.51
2022-11-28T20:40:46.588Z,73.90
2022-11-28T20:43:18.247Z,73.89
2022-11-28T20:45:50.009Z,74.06
2022-11-28T20:48:21.637Z,73.78
2022-11-28T20:50:53.292Z,73.75
2022-11-28T20:53:27.088Z,73.68
2022-11-28T20:56:05.779Z,73.95
2022-11-28T20:58:37.545Z,73.88
2022-11-28T21:01:17.261Z,74.03
2022-11-28T21:03:51.981Z,74.36
2022-11-28T21:06:23.688Z,74.30
2022-11-28T21:08:56.645Z,74.04
2022-11-28T21:11:55.603Z,74.27
2022-11-28T21:14:23.243Z,74.23
2022-11-28T21:16:55.630Z,73.87
2022-11-28T21:19:27.692Z,74.29
2022-11-28T21:22:00.024Z,74.02
2022-11-28T21:24:31.718Z,74.04
2022-11-28T21:27:03.848Z,73.82
2022-11-28T21:29:35.437Z,74.50
2022-11-28T21:32:12.172Z,74.50
2022-11-28T21:34:46.814Z,74.24
2022-11-28T21:37:18.466Z,74.30
2022-11-28T21:39:50.119Z,74.46
2022-11-28T21:42:21.892Z,74.51
2022-11-28T21:44:53.523Z,74.43
2022-11-28T21:47:27.136Z,74.79
2022-11-28T21:49:59.080Z,74.77
2022-11-28T21:52:33.218Z,74.28
2022-11-28T21:55:05.398Z,74.30
2022-11-28T21:57:42.245Z,74.67
2022-11-28T22:00:38.621Z,75.07
2022-11-28T22:03:13.913Z,75.21
2022-11-28T22:05:46.585Z,75.13
2022-11-28T22:08:21.729Z,75.19
2022-11-28T22:10:53.746Z,75.56
2022-11-28T22:13:25.296Z,75.26
2022-11-28T22:16:01.044Z,75.34
2022-11-28T22:18:32.785Z,75.15
2022-11-28T22:21:22.317Z,75.23
2022-11-28T22:23:59.845Z,75.33
2022-11-28T22:26:35.081Z,75.47
2022-11-28T22:29:15.302Z,75.50
2022-11-28T22:31:47.766Z,75.15
2022-11-28T22:34:22.377Z,75.31
2022-11-28T22:36:57.255Z,75.36
2022-11-28T22:39:28.784Z,75.30
2022-11-28T22:42:00.451Z,75.29
2022-11-28T22:44:32.260Z,74.79
2022-11-28T22:47:04.281Z,75.16
2022-11-28T22:49:38.590Z,74.85
2022-11-28T22:52:12.160Z,74.73
2022-11-28T22:54:44.189Z,74.84
2022-11-28T22:57:16.898Z,74.77
2022-11-28T22:59:49.077Z,74.80
2022-11-28T23:02:21.169Z,74.74
2022-11-28T23:04:55.875Z,74.69
2022-11-28T23:07:27.572Z,74.44
2022-11-28T23:09:59.910Z,74.45
2022-11-28T23:12:31.636Z,74.95
2022-11-28T23:15:06.290Z,74.50
2022-11-28T23:17:38.043Z,74.32
2022-11-28T23:20:10.532Z,74.21
2022-11-28T23:22:44.587Z,74.19
2022-11-28T23:25:16.353Z,74.10
2022-11-28T23:27:48.146Z,73.71
2022-11-28T23:30:19.856Z,73.93
2022-11-28T23:32:52.203Z,73.75
2022-11-28T23:35:23.799Z,73.59
2022-11-28T23:37:55.396Z,73.86
2022-11-28T23:40:28.661Z,73.65
2022-11-28T23:43:00.419Z,73.59
2022-11-28T23:45:32.072Z,73.39
2022-11-28T23:48:05.186Z,73.46
2022-11-28T23:50:36.733Z,73.32
2022-11-28T23:53:11.020Z,73.13
2022-11-28T23:55:42.602Z,73.06
2022-11-28T23:58:15.394Z,73.17
